sensor_id;sensor_type;location;lat;lon;timestamp;P1;durP1;ratioP1;P2;durP2;ratioP2
13321;SDS011;6730;46.248;6.930;2022-10-16T00:01:08;2.83;;;0.75;;
13321;SDS011;6730;46.248;6.930;2022-10-16T00:03:38;3.88;;;0.55;;
13321;SDS011;6730;46.248;6.930;2022-10-16T00:06:05;1.52;;;0.55;;
13321;SDS011;6730;46.248;6.930;2022-10-16T00:08:31;0.70;;;0.70;;
13321;SDS011;6730;46.248;6.930;2022-10-16T00:11:09;0.60;;;0.60;;
13321;SDS011;6730;46.248;6.930;2022-10-16T00:13:43;1.35;;;0.70;;
13321;SDS011;6730;46.248;6.930;2022-10-16T00:16:10;0.57;;;0.57;;
13321;SDS011;6730;46.248;6.930;2022-10-16T00:18:37;1.08;;;0.60;;
13321;SDS011;6730;46.248;6.930;2022-10-16T00:21:06;1.13;;;0.60;;
13321;SDS011;6730;46.248;6.930;2022-10-16T00:23:38;0.60;;;0.60;;
13321;SDS011;6730;46.248;6.930;2022-10-16T00:26:11;0.57;;;0.57;;
13321;SDS011;6730;46.248;6.930;2022-10-16T00:28:44;0.55;;;0.52;;
13321;SDS011;6730;46.248;6.930;2022-10-16T00:31:14;0.55;;;0.55;;
13321;SDS011;6730;46.248;6.930;2022-10-16T00:33:41;1.98;;;0.43;;
13321;SDS011;6730;46.248;6.930;2022-10-16T00:36:09;1.48;;;0.63;;
13321;SDS011;6730;46.248;6.930;2022-10-16T00:38:37;0.82;;;0.70;;
13321;SDS011;6730;46.248;6.930;2022-10-16T00:41:03;1.30;;;0.50;;
13321;SDS011;6730;46.248;6.930;2022-10-16T00:46:02;2.58;;;0.60;;
13321;SDS011;6730;46.248;6.930;2022-10-16T00:48:29;1.77;;;0.70;;
13321;SDS011;6730;46.248;6.930;2022-10-16T00:50:55;1.02;;;0.60;;
13321;SDS011;6730;46.248;6.930;2022-10-16T00:53:23;1.58;;;0.80;;
13321;SDS011;6730;46.248;6.930;2022-10-16T00:55:50;1.17;;;0.52;;
13321;SDS011;6730;46.248;6.930;2022-10-16T00:58:16;0.60;;;0.60;;
13321;SDS011;6730;46.248;6.930;2022-10-16T01:00:42;0.70;;;0.70;;
13321;SDS011;6730;46.248;6.930;2022-10-16T01:11:29;0.88;;;0.68;;
13321;SDS011;6730;46.248;6.930;2022-10-16T01:14:02;1.10;;;0.50;;
13321;SDS011;6730;46.248;6.930;2022-10-16T01:16:55;0.40;;;0.40;;
13321;SDS011;6730;46.248;6.930;2022-10-16T01:19:41;0.73;;;0.70;;
13321;SDS011;6730;46.248;6.930;2022-10-16T01:22:16;1.05;;;0.50;;
13321;SDS011;6730;46.248;6.930;2022-10-16T01:24:44;0.60;;;0.60;;
13321;SDS011;6730;46.248;6.930;2022-10-16T01:27:14;1.13;;;0.55;;
13321;SDS011;6730;46.248;6.930;2022-10-16T01:33:06;8.07;;;0.80;;
13321;SDS011;6730;46.248;6.930;2022-10-16T01:35:36;1.63;;;0.60;;
13321;SDS011;6730;46.248;6.930;2022-10-16T01:40:52;12.40;;;1.00;;
13321;SDS011;6730;46.248;6.930;2022-10-16T01:43:31;0.60;;;0.60;;
13321;SDS011;6730;46.248;6.930;2022-10-16T01:46:01;1.30;;;0.70;;
13321;SDS011;6730;46.248;6.930;2022-10-16T01:48:27;6.07;;;0.80;;
13321;SDS011;6730;46.248;6.930;2022-10-16T01:50:57;1.42;;;0.60;;
13321;SDS011;6730;46.248;6.930;2022-10-16T01:53:27;0.95;;;0.70;;
13321;SDS011;6730;46.248;6.930;2022-10-16T01:55:54;0.90;;;0.60;;
13321;SDS011;6730;46.248;6.930;2022-10-16T01:58:22;0.70;;;0.63;;
13321;SDS011;6730;46.248;6.930;2022-10-16T02:00:50;0.55;;;0.55;;
13321;SDS011;6730;46.248;6.930;2022-10-16T02:03:18;0.60;;;0.60;;
13321;SDS011;6730;46.248;6.930;2022-10-16T02:05:46;0.60;;;0.60;;
13321;SDS011;6730;46.248;6.930;2022-10-16T02:08:15;2.95;;;0.60;;
13321;SDS011;6730;46.248;6.930;2022-10-16T02:10:41;3.25;;;0.65;;
13321;SDS011;6730;46.248;6.930;2022-10-16T02:13:16;0.68;;;0.60;;
13321;SDS011;6730;46.248;6.930;2022-10-16T02:15:46;0.63;;;0.63;;
13321;SDS011;6730;46.248;6.930;2022-10-16T02:18:12;0.68;;;0.68;;
13321;SDS011;6730;46.248;6.930;2022-10-16T02:20:53;3.17;;;0.55;;
13321;SDS011;6730;46.248;6.930;2022-10-16T02:24:10;0.95;;;0.60;;
13321;SDS011;6730;46.248;6.930;2022-10-16T02:26:11;1.40;;;0.60;;
13321;SDS011;6730;46.248;6.930;2022-10-16T02:28:45;0.52;;;0.50;;
13321;SDS011;6730;46.248;6.930;2022-10-16T02:31:18;0.50;;;0.50;;
13321;SDS011;6730;46.248;6.930;2022-10-16T02:33:51;0.60;;;0.45;;
13321;SDS011;6730;46.248;6.930;2022-10-16T02:36:19;0.93;;;0.40;;
13321;SDS011;6730;46.248;6.930;2022-10-16T02:38:46;0.65;;;0.55;;
13321;SDS011;6730;46.248;6.930;2022-10-16T02:41:12;8.60;;;0.82;;
13321;SDS011;6730;46.248;6.930;2022-10-16T02:43:38;1.52;;;0.60;;
13321;SDS011;6730;46.248;6.930;2022-10-16T02:46:04;6.22;;;0.70;;
13321;SDS011;6730;46.248;6.930;2022-10-16T02:48:30;1.65;;;0.70;;
13321;SDS011;6730;46.248;6.930;2022-10-16T02:50:56;1.05;;;0.43;;
13321;SDS011;6730;46.248;6.930;2022-10-16T02:53:22;0.50;;;0.50;;
13321;SDS011;6730;46.248;6.930;2022-10-16T02:55:47;1.38;;;0.50;;
13321;SDS011;6730;46.248;6.930;2022-10-16T02:58:13;0.40;;;0.40;;
13321;SDS011;6730;46.248;6.930;2022-10-16T03:00:39;0.85;;;0.60;;
13321;SDS011;6730;46.248;6.930;2022-10-16T03:03:04;1.70;;;0.60;;
13321;SDS011;6730;46.248;6.930;2022-10-16T03:05:30;0.50;;;0.50;;
13321;SDS011;6730;46.248;6.930;2022-10-16T03:07:55;0.55;;;0.35;;
13321;SDS011;6730;46.248;6.930;2022-10-16T03:10:21;0.50;;;0.50;;
13321;SDS011;6730;46.248;6.930;2022-10-16T03:12:47;0.65;;;0.50;;
13321;SDS011;6730;46.248;6.930;2022-10-16T03:15:12;1.17;;;0.60;;
13321;SDS011;6730;46.248;6.930;2022-10-16T03:17:38;1.75;;;0.47;;
13321;SDS011;6730;46.248;6.930;2022-10-16T03:20:04;0.50;;;0.50;;
13321;SDS011;6730;46.248;6.930;2022-10-16T03:22:30;0.65;;;0.50;;
13321;SDS011;6730;46.248;6.930;2022-10-16T03:24:55;1.95;;;0.60;;
13321;SDS011;6730;46.248;6.930;2022-10-16T03:27:21;0.65;;;0.50;;
13321;SDS011;6730;46.248;6.930;2022-10-16T03:29:47;0.88;;;0.47;;
13321;SDS011;6730;46.248;6.930;2022-10-16T03:32:12;1.27;;;0.52;;
13321;SDS011;6730;46.248;6.930;2022-10-16T03:34:38;3.42;;;0.80;;
13321;SDS011;6730;46.248;6.930;2022-10-16T03:37:04;0.30;;;0.30;;
13321;SDS011;6730;46.248;6.930;2022-10-16T03:39:29;0.95;;;0.57;;
13321;SDS011;6730;46.248;6.930;2022-10-16T03:41:55;2.45;;;0.50;;
13321;SDS011;6730;46.248;6.930;2022-10-16T03:44:21;0.57;;;0.57;;
13321;SDS011;6730;46.248;6.930;2022-10-16T03:46:46;1.48;;;0.45;;
13321;SDS011;6730;46.248;6.930;2022-10-16T03:49:12;1.40;;;0.60;;
13321;SDS011;6730;46.248;6.930;2022-10-16T03:51:38;1.52;;;0.50;;
13321;SDS011;6730;46.248;6.930;2022-10-16T03:54:03;1.23;;;0.50;;
13321;SDS011;6730;46.248;6.930;2022-10-16T03:56:29;0.82;;;0.50;;
13321;SDS011;6730;46.248;6.930;2022-10-16T03:58:54;0.68;;;0.68;;
13321;SDS011;6730;46.248;6.930;2022-10-16T04:01:20;0.60;;;0.57;;
13321;SDS011;6730;46.248;6.930;2022-10-16T04:03:46;0.60;;;0.50;;
13321;SDS011;6730;46.248;6.930;2022-10-16T04:06:11;2.08;;;0.70;;
13321;SDS011;6730;46.248;6.930;2022-10-16T04:08:37;0.40;;;0.40;;
13321;SDS011;6730;46.248;6.930;2022-10-16T04:11:04;0.40;;;0.40;;
13321;SDS011;6730;46.248;6.930;2022-10-16T04:13:29;0.65;;;0.55;;
13321;SDS011;6730;46.248;6.930;2022-10-16T04:15:55;2.05;;;0.52;;
13321;SDS011;6730;46.248;6.930;2022-10-16T04:18:21;1.17;;;0.38;;
13321;SDS011;6730;46.248;6.930;2022-10-16T04:20:46;1.65;;;0.88;;
13321;SDS011;6730;46.248;6.930;2022-10-16T04:23:12;0.50;;;0.50;;
13321;SDS011;6730;46.248;6.930;2022-10-16T04:25:38;1.95;;;0.52;;
13321;SDS011;6730;46.248;6.930;2022-10-16T04:28:03;2.17;;;0.40;;
13321;SDS011;6730;46.248;6.930;2022-10-16T04:30:29;0.50;;;0.50;;
13321;SDS011;6730;46.248;6.930;2022-10-16T04:32:55;0.93;;;0.50;;
13321;SDS011;6730;46.248;6.930;2022-10-16T04:35:21;2.67;;;0.60;;
13321;SDS011;6730;46.248;6.930;2022-10-16T04:37:47;1.00;;;0.57;;
13321;SDS011;6730;46.248;6.930;2022-10-16T04:40:13;0.32;;;0.32;;
13321;SDS011;6730;46.248;6.930;2022-10-16T04:42:39;0.52;;;0.52;;
13321;SDS011;6730;46.248;6.930;2022-10-16T04:45:05;0.50;;;0.50;;
13321;SDS011;6730;46.248;6.930;2022-10-16T04:47:32;1.08;;;0.55;;
13321;SDS011;6730;46.248;6.930;2022-10-16T04:49:58;0.40;;;0.40;;
13321;SDS011;6730;46.248;6.930;2022-10-16T04:52:27;0.88;;;0.50;;
13321;SDS011;6730;46.248;6.930;2022-10-16T04:54:53;1.40;;;0.52;;
13321;SDS011;6730;46.248;6.930;2022-10-16T04:57:19;0.40;;;0.40;;
13321;SDS011;6730;46.248;6.930;2022-10-16T04:59:44;0.50;;;0.47;;
13321;SDS011;6730;46.248;6.930;2022-10-16T05:02:10;0.65;;;0.50;;
13321;SDS011;6730;46.248;6.930;2022-10-16T05:04:36;1.77;;;0.57;;
13321;SDS011;6730;46.248;6.930;2022-10-16T05:07:01;0.50;;;0.50;;
13321;SDS011;6730;46.248;6.930;2022-10-16T05:09:27;1.10;;;1.08;;
13321;SDS011;6730;46.248;6.930;2022-10-16T05:11:53;0.50;;;0.50;;
13321;SDS011;6730;46.248;6.930;2022-10-16T05:14:18;0.52;;;0.52;;
13321;SDS011;6730;46.248;6.930;2022-10-16T05:16:44;2.28;;;0.55;;
13321;SDS011;6730;46.248;6.930;2022-10-16T05:19:10;1.60;;;0.60;;
13321;SDS011;6730;46.248;6.930;2022-10-16T05:21:35;1.80;;;0.40;;
13321;SDS011;6730;46.248;6.930;2022-10-16T05:24:01;3.20;;;0.60;;
13321;SDS011;6730;46.248;6.930;2022-10-16T05:26:27;2.65;;;0.43;;
13321;SDS011;6730;46.248;6.930;2022-10-16T05:28:52;0.52;;;0.52;;
13321;SDS011;6730;46.248;6.930;2022-10-16T05:31:18;0.60;;;0.60;;
13321;SDS011;6730;46.248;6.930;2022-10-16T05:33:44;0.50;;;0.50;;
13321;SDS011;6730;46.248;6.930;2022-10-16T05:36:10;0.63;;;0.63;;
13321;SDS011;6730;46.248;6.930;2022-10-16T05:38:36;0.80;;;0.60;;
13321;SDS011;6730;46.248;6.930;2022-10-16T05:41:02;1.33;;;0.50;;
13321;SDS011;6730;46.248;6.930;2022-10-16T05:43:29;0.47;;;0.47;;
13321;SDS011;6730;46.248;6.930;2022-10-16T05:46:05;0.40;;;0.40;;
13321;SDS011;6730;46.248;6.930;2022-10-16T05:48:31;0.63;;;0.60;;
13321;SDS011;6730;46.248;6.930;2022-10-16T05:50:58;0.50;;;0.50;;
13321;SDS011;6730;46.248;6.930;2022-10-16T05:53:24;2.03;;;0.63;;
13321;SDS011;6730;46.248;6.930;2022-10-16T05:55:52;0.43;;;0.43;;
13321;SDS011;6730;46.248;6.930;2022-10-16T05:58:18;0.40;;;0.40;;
13321;SDS011;6730;46.248;6.930;2022-10-16T06:00:44;0.50;;;0.50;;
13321;SDS011;6730;46.248;6.930;2022-10-16T06:03:17;0.60;;;0.60;;
13321;SDS011;6730;46.248;6.930;2022-10-16T06:05:42;5.28;;;0.70;;
13321;SDS011;6730;46.248;6.930;2022-10-16T06:08:08;0.43;;;0.43;;
13321;SDS011;6730;46.248;6.930;2022-10-16T06:10:34;0.60;;;0.60;;
13321;SDS011;6730;46.248;6.930;2022-10-16T06:13:00;0.50;;;0.50;;
13321;SDS011;6730;46.248;6.930;2022-10-16T06:15:25;0.65;;;0.65;;
13321;SDS011;6730;46.248;6.930;2022-10-16T06:17:51;0.60;;;0.60;;
13321;SDS011;6730;46.248;6.930;2022-10-16T06:20:16;1.40;;;0.57;;
13321;SDS011;6730;46.248;6.930;2022-10-16T06:22:42;3.30;;;0.63;;
13321;SDS011;6730;46.248;6.930;2022-10-16T06:25:08;0.43;;;0.43;;
13321;SDS011;6730;46.248;6.930;2022-10-16T06:27:33;3.33;;;1.30;;
13321;SDS011;6730;46.248;6.930;2022-10-16T06:29:59;1.58;;;1.42;;
13321;SDS011;6730;46.248;6.930;2022-10-16T06:32:24;3.13;;;1.38;;
13321;SDS011;6730;46.248;6.930;2022-10-16T06:34:50;1.02;;;0.90;;
13321;SDS011;6730;46.248;6.930;2022-10-16T06:37:16;1.65;;;1.15;;
13321;SDS011;6730;46.248;6.930;2022-10-16T06:39:41;1.45;;;1.02;;
13321;SDS011;6730;46.248;6.930;2022-10-16T06:42:07;0.85;;;0.70;;
13321;SDS011;6730;46.248;6.930;2022-10-16T06:44:33;1.45;;;0.80;;
13321;SDS011;6730;46.248;6.930;2022-10-16T06:46:58;0.65;;;0.65;;
13321;SDS011;6730;46.248;6.930;2022-10-16T06:49:24;0.80;;;0.60;;
13321;SDS011;6730;46.248;6.930;2022-10-16T06:51:49;1.25;;;0.60;;
13321;SDS011;6730;46.248;6.930;2022-10-16T06:54:15;2.30;;;0.60;;
13321;SDS011;6730;46.248;6.930;2022-10-16T06:56:41;2.08;;;0.70;;
13321;SDS011;6730;46.248;6.930;2022-10-16T06:59:07;1.50;;;0.60;;
13321;SDS011;6730;46.248;6.930;2022-10-16T07:01:32;1.23;;;1.00;;
13321;SDS011;6730;46.248;6.930;2022-10-16T07:03:58;0.85;;;0.70;;
13321;SDS011;6730;46.248;6.930;2022-10-16T07:06:25;0.65;;;0.65;;
13321;SDS011;6730;46.248;6.930;2022-10-16T07:08:52;2.15;;;0.90;;
13321;SDS011;6730;46.248;6.930;2022-10-16T07:11:19;1.42;;;1.10;;
13321;SDS011;6730;46.248;6.930;2022-10-16T07:13:46;1.77;;;1.02;;
13321;SDS011;6730;46.248;6.930;2022-10-16T07:16:14;1.15;;;1.00;;
13321;SDS011;6730;46.248;6.930;2022-10-16T07:18:42;4.22;;;1.10;;
13321;SDS011;6730;46.248;6.930;2022-10-16T07:21:19;1.90;;;0.80;;
13321;SDS011;6730;46.248;6.930;2022-10-16T07:23:52;0.90;;;0.70;;
13321;SDS011;6730;46.248;6.930;2022-10-16T07:26:19;0.90;;;0.80;;
13321;SDS011;6730;46.248;6.930;2022-10-16T07:28:46;1.17;;;1.00;;
13321;SDS011;6730;46.248;6.930;2022-10-16T07:31:12;0.80;;;0.80;;
13321;SDS011;6730;46.248;6.930;2022-10-16T07:33:39;0.85;;;0.70;;
13321;SDS011;6730;46.248;6.930;2022-10-16T07:36:08;0.80;;;0.70;;
13321;SDS011;6730;46.248;6.930;2022-10-16T07:38:34;1.90;;;0.77;;
13321;SDS011;6730;46.248;6.930;2022-10-16T07:41:00;2.03;;;0.88;;
13321;SDS011;6730;46.248;6.930;2022-10-16T07:43:28;0.70;;;0.70;;
13321;SDS011;6730;46.248;6.930;2022-10-16T07:45:53;0.57;;;0.57;;
13321;SDS011;6730;46.248;6.930;2022-10-16T07:48:20;0.73;;;0.73;;
13321;SDS011;6730;46.248;6.930;2022-10-16T07:50:46;2.30;;;1.00;;
13321;SDS011;6730;46.248;6.930;2022-10-16T07:53:12;3.83;;;0.90;;
13321;SDS011;6730;46.248;6.930;2022-10-16T07:55:38;3.60;;;0.80;;
13321;SDS011;6730;46.248;6.930;2022-10-16T07:58:04;0.70;;;0.70;;
13321;SDS011;6730;46.248;6.930;2022-10-16T08:00:30;1.10;;;0.70;;
13321;SDS011;6730;46.248;6.930;2022-10-16T08:02:57;2.75;;;0.80;;
13321;SDS011;6730;46.248;6.930;2022-10-16T08:05:26;0.73;;;0.73;;
13321;SDS011;6730;46.248;6.930;2022-10-16T08:07:53;3.25;;;0.95;;
13321;SDS011;6730;46.248;6.930;2022-10-16T08:10:19;0.80;;;0.80;;
13321;SDS011;6730;46.248;6.930;2022-10-16T08:12:47;1.05;;;0.75;;
13321;SDS011;6730;46.248;6.930;2022-10-16T08:15:14;0.80;;;0.80;;
13321;SDS011;6730;46.248;6.930;2022-10-16T08:17:39;2.55;;;0.98;;
13321;SDS011;6730;46.248;6.930;2022-10-16T08:20:05;1.23;;;1.10;;
13321;SDS011;6730;46.248;6.930;2022-10-16T08:22:31;2.30;;;1.50;;
13321;SDS011;6730;46.248;6.930;2022-10-16T08:24:57;5.22;;;1.63;;
13321;SDS011;6730;46.248;6.930;2022-10-16T08:27:23;2.53;;;1.63;;
13321;SDS011;6730;46.248;6.930;2022-10-16T08:29:48;2.90;;;1.58;;
13321;SDS011;6730;46.248;6.930;2022-10-16T08:32:14;1.13;;;0.98;;
13321;SDS011;6730;46.248;6.930;2022-10-16T08:34:40;3.88;;;1.33;;
13321;SDS011;6730;46.248;6.930;2022-10-16T08:37:06;5.28;;;1.20;;
13321;SDS011;6730;46.248;6.930;2022-10-16T08:39:37;1.95;;;1.10;;
13321;SDS011;6730;46.248;6.930;2022-10-16T08:47:43;1.13;;;1.02;;
13321;SDS011;6730;46.248;6.930;2022-10-16T08:50:24;1.10;;;1.00;;
13321;SDS011;6730;46.248;6.930;2022-10-16T08:52:53;1.30;;;1.10;;
13321;SDS011;6730;46.248;6.930;2022-10-16T08:58:13;2.88;;;1.67;;
13321;SDS011;6730;46.248;6.930;2022-10-16T09:00:47;1.50;;;1.10;;
13321;SDS011;6730;46.248;6.930;2022-10-16T09:06:10;1.65;;;1.20;;
13321;SDS011;6730;46.248;6.930;2022-10-16T09:17:03;1.15;;;1.05;;
13321;SDS011;6730;46.248;6.930;2022-10-16T09:19:46;1.23;;;1.13;;
13321;SDS011;6730;46.248;6.930;2022-10-16T09:22:18;2.58;;;1.10;;
13321;SDS011;6730;46.248;6.930;2022-10-16T09:24:50;3.17;;;1.08;;
13321;SDS011;6730;46.248;6.930;2022-10-16T09:27:16;4.63;;;1.17;;
13321;SDS011;6730;46.248;6.930;2022-10-16T09:29:41;1.20;;;1.10;;
13321;SDS011;6730;46.248;6.930;2022-10-16T09:32:10;1.77;;;1.00;;
13321;SDS011;6730;46.248;6.930;2022-10-16T09:34:41;2.08;;;1.10;;
13321;SDS011;6730;46.248;6.930;2022-10-16T09:37:12;1.10;;;1.00;;
13321;SDS011;6730;46.248;6.930;2022-10-16T09:39:44;1.00;;;0.98;;
13321;SDS011;6730;46.248;6.930;2022-10-16T09:42:24;1.98;;;1.05;;
13321;SDS011;6730;46.248;6.930;2022-10-16T09:45:01;1.20;;;1.10;;
13321;SDS011;6730;46.248;6.930;2022-10-16T09:47:29;2.05;;;1.10;;
13321;SDS011;6730;46.248;6.930;2022-10-16T09:49:57;2.25;;;1.20;;
13321;SDS011;6730;46.248;6.930;2022-10-16T09:52:29;1.30;;;1.20;;
13321;SDS011;6730;46.248;6.930;2022-10-16T09:55:12;1.60;;;1.50;;
13321;SDS011;6730;46.248;6.930;2022-10-16T09:57:50;2.25;;;1.52;;
13321;SDS011;6730;46.248;6.930;2022-10-16T10:00:16;2.30;;;1.67;;
13321;SDS011;6730;46.248;6.930;2022-10-16T10:02:42;3.47;;;1.70;;
13321;SDS011;6730;46.248;6.930;2022-10-16T10:05:18;1.90;;;1.70;;
13321;SDS011;6730;46.248;6.930;2022-10-16T10:07:59;2.17;;;1.10;;
13321;SDS011;6730;46.248;6.930;2022-10-16T10:10:36;1.83;;;0.98;;
13321;SDS011;6730;46.248;6.930;2022-10-16T10:13:16;1.05;;;0.98;;
13321;SDS011;6730;46.248;6.930;2022-10-16T10:15:46;2.92;;;1.10;;
13321;SDS011;6730;46.248;6.930;2022-10-16T10:18:19;1.92;;;1.17;;
13321;SDS011;6730;46.248;6.930;2022-10-16T10:20:57;1.75;;;1.10;;
13321;SDS011;6730;46.248;6.930;2022-10-16T10:23:24;1.50;;;1.20;;
13321;SDS011;6730;46.248;6.930;2022-10-16T10:31:48;1.17;;;1.10;;
13321;SDS011;6730;46.248;6.930;2022-10-16T10:34:38;4.65;;;1.50;;
13321;SDS011;6730;46.248;6.930;2022-10-16T10:37:22;1.35;;;1.10;;
13321;SDS011;6730;46.248;6.930;2022-10-16T10:48:22;1.90;;;1.23;;
13321;SDS011;6730;46.248;6.930;2022-10-16T10:53:44;1.30;;;1.20;;
13321;SDS011;6730;46.248;6.930;2022-10-16T11:07:32;2.08;;;1.10;;
13321;SDS011;6730;46.248;6.930;2022-10-16T11:10:04;2.33;;;1.60;;
13321;SDS011;6730;46.248;6.930;2022-10-16T11:12:49;2.17;;;1.30;;
13321;SDS011;6730;46.248;6.930;2022-10-16T11:15:25;1.23;;;1.10;;
13321;SDS011;6730;46.248;6.930;2022-10-16T11:18:06;1.40;;;1.10;;
13321;SDS011;6730;46.248;6.930;2022-10-16T11:20:33;1.95;;;1.20;;
13321;SDS011;6730;46.248;6.930;2022-10-16T11:25:31;1.30;;;1.20;;
13321;SDS011;6730;46.248;6.930;2022-10-16T11:30:50;1.35;;;1.25;;
13321;SDS011;6730;46.248;6.930;2022-10-16T11:33:30;1.20;;;1.10;;
13321;SDS011;6730;46.248;6.930;2022-10-16T11:36:17;2.10;;;1.10;;
13321;SDS011;6730;46.248;6.930;2022-10-16T11:39:16;1.15;;;1.05;;
13321;SDS011;6730;46.248;6.930;2022-10-16T11:41:50;1.60;;;1.30;;
13321;SDS011;6730;46.248;6.930;2022-10-16T11:55:39;1.55;;;1.45;;
13321;SDS011;6730;46.248;6.930;2022-10-16T11:58:07;1.48;;;1.30;;
13321;SDS011;6730;46.248;6.930;2022-10-16T12:01:00;1.75;;;1.30;;
13321;SDS011;6730;46.248;6.930;2022-10-16T12:06:44;2.00;;;1.65;;
13321;SDS011;6730;46.248;6.930;2022-10-16T12:09:27;2.30;;;1.45;;
13321;SDS011;6730;46.248;6.930;2022-10-16T12:11:55;3.55;;;1.60;;
13321;SDS011;6730;46.248;6.930;2022-10-16T12:14:33;2.83;;;1.27;;
13321;SDS011;6730;46.248;6.930;2022-10-16T12:17:26;1.67;;;1.58;;
13321;SDS011;6730;46.248;6.930;2022-10-16T12:20:00;2.72;;;1.38;;
13321;SDS011;6730;46.248;6.930;2022-10-16T12:28:20;1.40;;;1.30;;
13321;SDS011;6730;46.248;6.930;2022-10-16T12:31:06;3.17;;;1.30;;
13321;SDS011;6730;46.248;6.930;2022-10-16T12:33:37;1.40;;;1.30;;
13321;SDS011;6730;46.248;6.930;2022-10-16T12:36:15;1.48;;;1.15;;
13321;SDS011;6730;46.248;6.930;2022-10-16T12:38:52;4.30;;;1.52;;
13321;SDS011;6730;46.248;6.930;2022-10-16T12:43:54;1.25;;;1.15;;
13321;SDS011;6730;46.248;6.930;2022-10-16T12:46:26;2.47;;;1.23;;
13321;SDS011;6730;46.248;6.930;2022-10-16T12:51:41;1.58;;;1.30;;
13321;SDS011;6730;46.248;6.930;2022-10-16T13:07:44;2.88;;;1.25;;
13321;SDS011;6730;46.248;6.930;2022-10-16T13:19:19;1.35;;;1.25;;
13321;SDS011;6730;46.248;6.930;2022-10-16T13:22:04;1.20;;;1.10;;
13321;SDS011;6730;46.248;6.930;2022-10-16T13:24:42;1.13;;;1.02;;
13321;SDS011;6730;46.248;6.930;2022-10-16T13:27:28;1.33;;;1.20;;
13321;SDS011;6730;46.248;6.930;2022-10-16T13:30:11;1.33;;;1.13;;
13321;SDS011;6730;46.248;6.930;2022-10-16T13:32:40;1.50;;;1.40;;
13321;SDS011;6730;46.248;6.930;2022-10-16T13:35:19;1.20;;;1.10;;
13321;SDS011;6730;46.248;6.930;2022-10-16T13:37:47;5.40;;;1.52;;
13321;SDS011;6730;46.248;6.930;2022-10-16T13:40:22;1.40;;;1.30;;
13321;SDS011;6730;46.248;6.930;2022-10-16T13:42:49;2.08;;;1.40;;
13321;SDS011;6730;46.248;6.930;2022-10-16T13:45:23;1.40;;;1.30;;
13321;SDS011;6730;46.248;6.930;2022-10-16T13:48:05;1.30;;;1.20;;
13321;SDS011;6730;46.248;6.930;2022-10-16T13:50:34;1.25;;;1.15;;
13321;SDS011;6730;46.248;6.930;2022-10-16T13:53:18;2.35;;;1.42;;
13321;SDS011;6730;46.248;6.930;2022-10-16T13:55:44;1.38;;;1.25;;
13321;SDS011;6730;46.248;6.930;2022-10-16T13:58:13;1.40;;;1.30;;
13321;SDS011;6730;46.248;6.930;2022-10-16T14:00:39;1.40;;;1.30;;
13321;SDS011;6730;46.248;6.930;2022-10-16T14:03:18;1.20;;;1.10;;
13321;SDS011;6730;46.248;6.930;2022-10-16T14:05:47;1.20;;;1.10;;
13321;SDS011;6730;46.248;6.930;2022-10-16T14:08:22;1.48;;;1.35;;
13321;SDS011;6730;46.248;6.930;2022-10-16T14:10:50;2.08;;;1.23;;
13321;SDS011;6730;46.248;6.930;2022-10-16T14:13:19;2.97;;;1.20;;
13321;SDS011;6730;46.248;6.930;2022-10-16T14:15:51;2.70;;;1.20;;
13321;SDS011;6730;46.248;6.930;2022-10-16T14:18:23;3.78;;;1.20;;
13321;SDS011;6730;46.248;6.930;2022-10-16T14:20:53;1.58;;;1.48;;
13321;SDS011;6730;46.248;6.930;2022-10-16T14:23:23;1.38;;;1.20;;
13321;SDS011;6730;46.248;6.930;2022-10-16T14:26:05;1.40;;;1.30;;
13321;SDS011;6730;46.248;6.930;2022-10-16T14:28:42;4.07;;;1.10;;
13321;SDS011;6730;46.248;6.930;2022-10-16T14:31:42;2.20;;;1.17;;
13321;SDS011;6730;46.248;6.930;2022-10-16T14:34:02;4.63;;;1.20;;
13321;SDS011;6730;46.248;6.930;2022-10-16T14:36:28;4.25;;;1.30;;
13321;SDS011;6730;46.248;6.930;2022-10-16T14:38:57;1.15;;;1.08;;
13321;SDS011;6730;46.248;6.930;2022-10-16T14:41:23;1.25;;;1.15;;
13321;SDS011;6730;46.248;6.930;2022-10-16T14:43:50;1.48;;;1.17;;
13321;SDS011;6730;46.248;6.930;2022-10-16T14:46:19;1.20;;;1.10;;
13321;SDS011;6730;46.248;6.930;2022-10-16T14:48:51;1.48;;;1.17;;
13321;SDS011;6730;46.248;6.930;2022-10-16T14:51:45;1.42;;;1.20;;
13321;SDS011;6730;46.248;6.930;2022-10-16T14:54:12;2.88;;;1.63;;
13321;SDS011;6730;46.248;6.930;2022-10-16T15:01:55;1.30;;;1.20;;
13321;SDS011;6730;46.248;6.930;2022-10-16T15:04:21;2.47;;;1.27;;
13321;SDS011;6730;46.248;6.930;2022-10-16T15:06:47;2.10;;;1.10;;
13321;SDS011;6730;46.248;6.930;2022-10-16T15:09:12;4.90;;;1.10;;
13321;SDS011;6730;46.248;6.930;2022-10-16T15:11:38;1.15;;;1.02;;
13321;SDS011;6730;46.248;6.930;2022-10-16T15:14:05;3.85;;;1.40;;
13321;SDS011;6730;46.248;6.930;2022-10-16T15:16:30;2.75;;;1.00;;
13321;SDS011;6730;46.248;6.930;2022-10-16T15:18:56;4.82;;;1.30;;
13321;SDS011;6730;46.248;6.930;2022-10-16T15:21:24;2.38;;;1.30;;
13321;SDS011;6730;46.248;6.930;2022-10-16T15:23:52;1.25;;;1.15;;
13321;SDS011;6730;46.248;6.930;2022-10-16T15:26:17;2.78;;;1.20;;
13321;SDS011;6730;46.248;6.930;2022-10-16T15:28:43;1.17;;;1.05;;
13321;SDS011;6730;46.248;6.930;2022-10-16T15:31:08;3.03;;;1.00;;
13321;SDS011;6730;46.248;6.930;2022-10-16T15:33:34;1.40;;;1.30;;
13321;SDS011;6730;46.248;6.930;2022-10-16T15:36:00;1.20;;;1.13;;
13321;SDS011;6730;46.248;6.930;2022-10-16T15:38:27;1.35;;;1.25;;
13321;SDS011;6730;46.248;6.930;2022-10-16T15:40:53;3.47;;;1.30;;
13321;SDS011;6730;46.248;6.930;2022-10-16T15:43:19;1.20;;;1.10;;
13321;SDS011;6730;46.248;6.930;2022-10-16T15:48:41;1.20;;;1.10;;
13321;SDS011;6730;46.248;6.930;2022-10-16T15:51:08;4.25;;;1.15;;
13321;SDS011;6730;46.248;6.930;2022-10-16T15:53:34;1.40;;;1.15;;
13321;SDS011;6730;46.248;6.930;2022-10-16T15:56:06;2.85;;;1.45;;
13321;SDS011;6730;46.248;6.930;2022-10-16T15:58:33;3.72;;;1.20;;
13321;SDS011;6730;46.248;6.930;2022-10-16T16:01:00;2.92;;;1.25;;
13321;SDS011;6730;46.248;6.930;2022-10-16T16:03:27;3.95;;;1.30;;
13321;SDS011;6730;46.248;6.930;2022-10-16T16:05:53;1.15;;;1.05;;
13321;SDS011;6730;46.248;6.930;2022-10-16T16:08:19;3.92;;;1.30;;
13321;SDS011;6730;46.248;6.930;2022-10-16T16:10:45;2.40;;;1.25;;
13321;SDS011;6730;46.248;6.930;2022-10-16T16:13:29;2.17;;;1.25;;
13321;SDS011;6730;46.248;6.930;2022-10-16T16:15:55;4.28;;;1.30;;
13321;SDS011;6730;46.248;6.930;2022-10-16T16:18:21;2.03;;;1.30;;
13321;SDS011;6730;46.248;6.930;2022-10-16T16:20:48;1.42;;;1.33;;
13321;SDS011;6730;46.248;6.930;2022-10-16T16:23:15;1.92;;;1.45;;
13321;SDS011;6730;46.248;6.930;2022-10-16T16:25:41;1.25;;;1.17;;
13321;SDS011;6730;46.248;6.930;2022-10-16T16:28:06;1.67;;;1.23;;
13321;SDS011;6730;46.248;6.930;2022-10-16T16:30:32;2.17;;;1.60;;
13321;SDS011;6730;46.248;6.930;2022-10-16T16:32:58;2.05;;;1.30;;
13321;SDS011;6730;46.248;6.930;2022-10-16T16:35:23;3.33;;;1.42;;
13321;SDS011;6730;46.248;6.930;2022-10-16T16:37:49;3.00;;;1.27;;
13321;SDS011;6730;46.248;6.930;2022-10-16T16:40:15;1.52;;;1.35;;
13321;SDS011;6730;46.248;6.930;2022-10-16T16:42:40;5.38;;;1.50;;
13321;SDS011;6730;46.248;6.930;2022-10-16T16:45:12;3.58;;;1.40;;
13321;SDS011;6730;46.248;6.930;2022-10-16T16:47:39;2.28;;;1.38;;
13321;SDS011;6730;46.248;6.930;2022-10-16T16:50:06;1.30;;;1.20;;
13321;SDS011;6730;46.248;6.930;2022-10-16T16:52:36;1.77;;;1.48;;
13321;SDS011;6730;46.248;6.930;2022-10-16T16:55:02;0.90;;;0.90;;
13321;SDS011;6730;46.248;6.930;2022-10-16T16:57:28;5.65;;;1.42;;
13321;SDS011;6730;46.248;6.930;2022-10-16T16:59:53;1.42;;;1.13;;
13321;SDS011;6730;46.248;6.930;2022-10-16T17:02:19;1.90;;;1.13;;
13321;SDS011;6730;46.248;6.930;2022-10-16T17:04:45;2.75;;;1.10;;
13321;SDS011;6730;46.248;6.930;2022-10-16T17:07:10;1.13;;;1.02;;
13321;SDS011;6730;46.248;6.930;2022-10-16T17:09:39;1.65;;;1.38;;
13321;SDS011;6730;46.248;6.930;2022-10-16T17:12:14;1.20;;;1.10;;
13321;SDS011;6730;46.248;6.930;2022-10-16T17:15:23;2.70;;;1.40;;
13321;SDS011;6730;46.248;6.930;2022-10-16T17:17:55;1.20;;;1.05;;
13321;SDS011;6730;46.248;6.930;2022-10-16T17:20:21;1.30;;;1.20;;